createdAt,value
2016-10-16T00:00:14.347Z,8.12
2016-10-16T00:00:55.867Z,8.1
2016-10-16T00:01:37.470Z,8.05
2016-10-16T00:02:19.127Z,8.1
2016-10-16T00:03:00.721Z,8.1
2016-10-16T00:03:42.209Z,8.11
2016-10-16T00:04:24.072Z,8
2016-10-16T00:06:18.819Z,8.12
2016-10-16T00:07:00.507Z,8.01
2016-10-16T00:07:42.159Z,8.11
2016-10-16T00:08:23.860Z,8.1
2016-10-16T00:09:05.575Z,8.11
2016-10-16T00:09:47.146Z,8.05
2016-10-16T00:10:28.858Z,8.05
2016-10-16T00:11:10.647Z,7.95
2016-10-16T00:11:52.278Z,8
2016-10-16T00:12:34.109Z,8.05
2016-10-16T00:13:15.860Z,7.97
2016-10-16T00:13:57.597Z,7.93
2016-10-16T00:14:39.364Z,7.95
2016-10-16T00:15:21.021Z,7.9
2016-10-16T00:16:02.525Z,7.97
2016-10-16T00:16:44.152Z,8.01
2016-10-16T00:17:25.839Z,7.9
2016-10-16T00:18:07.607Z,7.98
2016-10-16T00:18:49.353Z,7.93
2016-10-16T00:19:31.111Z,7.97
2016-10-16T00:20:12.816Z,7.98
2016-10-16T00:20:54.561Z,8
2016-10-16T00:21:36.296Z,7.98
2016-10-16T00:22:18.040Z,7.95
2016-10-16T00:22:59.770Z,7.92
2016-10-16T00:25:15.174Z,7.97
2016-10-16T00:25:56.861Z,8.05
2016-10-16T00:26:38.623Z,7.98
2016-10-16T00:28:38.713Z,7.98
2016-10-16T00:29:20.454Z,8
2016-10-16T00:30:02.217Z,7.97
2016-10-16T00:30:43.935Z,7.9
2016-10-16T00:31:25.453Z,7.93
2016-10-16T00:32:06.673Z,7.98
2016-10-16T00:32:47.807Z,7.97
2016-10-16T00:33:29.579Z,7.97
2016-10-16T00:34:11.097Z,7.95
2016-10-16T00:36:05.851Z,8
2016-10-16T00:36:47.552Z,8.01
2016-10-16T00:39:02.814Z,7.97
2016-10-16T00:39:44.516Z,7.97
2016-10-16T00:41:59.777Z,7.93
2016-10-16T00:42:41.498Z,7.95
2016-10-16T00:43:23.214Z,8.01
2016-10-16T00:44:04.888Z,7.97
2016-10-16T00:46:04.921Z,8.1
2016-10-16T00:46:46.580Z,8.02
2016-10-16T00:47:28.230Z,8.1
2016-10-16T00:48:09.888Z,8.08
2016-10-16T00:48:51.625Z,7.95
2016-10-16T00:49:33.387Z,8.04
2016-10-16T00:51:33.485Z,8.01
2016-10-16T00:52:15.184Z,7.95
2016-10-16T00:52:56.954Z,8
2016-10-16T00:53:38.687Z,7.97
2016-10-16T00:54:20.365Z,7.97
2016-10-16T00:55:02.129Z,8.08
2016-10-16T00:55:43.826Z,7.92
2016-10-16T00:56:25.550Z,8.02
2016-10-16T00:57:07.336Z,7.95
2016-10-16T00:57:48.381Z,7.87
2016-10-16T00:58:28.925Z,7.95
2016-10-16T00:59:09.449Z,7.9
2016-10-16T00:59:49.986Z,7.92
2016-10-16T01:00:30.525Z,7.93
2016-10-16T01:01:11.050Z,7.95
2016-10-16T01:01:51.584Z,7.92
2016-10-16T01:02:32.107Z,7.92
2016-10-16T01:03:12.649Z,7.89
2016-10-16T01:03:53.191Z,7.95
2016-10-16T01:04:33.731Z,7.93
2016-10-16T01:05:14.270Z,7.95
2016-10-16T01:05:54.808Z,7.97
2016-10-16T01:06:35.336Z,7.97
2016-10-16T01:07:15.877Z,7.97
2016-10-16T01:07:56.416Z,7.97
2016-10-16T01:08:36.943Z,7.93
2016-10-16T01:09:17.477Z,7.9
2016-10-16T01:09:58.017Z,7.93
2016-10-16T01:10:38.555Z,7.97
2016-10-16T01:11:19.091Z,7.98
2016-10-16T01:11:59.633Z,7.93
2016-10-16T01:12:40.171Z,7.93
2016-10-16T01:13:20.702Z,7.97
2016-10-16T01:14:01.238Z,7.98
2016-10-16T01:14:41.775Z,7.95
2016-10-16T01:15:22.297Z,7.9
2016-10-16T01:16:02.853Z,7.97
2016-10-16T01:16:43.391Z,7.95
2016-10-16T01:17:23.921Z,7.97
2016-10-16T01:18:04.468Z,7.95
2016-10-16T01:18:45.001Z,7.95
2016-10-16T01:19:25.531Z,7.95
2016-10-16T01:20:06.075Z,7.97
2016-10-16T01:20:46.615Z,7.93
2016-10-16T01:21:27.141Z,7.97
2016-10-16T01:22:07.683Z,7.92
2016-10-16T01:22:48.221Z,7.98
2016-10-16T01:23:28.761Z,8
2016-10-16T01:24:09.299Z,7.87
2016-10-16T01:24:49.838Z,7.87
2016-10-16T01:25:30.382Z,7.89
2016-10-16T01:26:10.921Z,7.85
2016-10-16T01:26:51.454Z,7.85
2016-10-16T01:27:31.992Z,7.85
2016-10-16T01:28:12.525Z,7.86
2016-10-16T01:28:53.061Z,7.89
2016-10-16T01:29:33.610Z,7.9
2016-10-16T01:30:14.149Z,7.86
2016-10-16T01:30:54.691Z,7.8
2016-10-16T01:31:35.223Z,7.8
2016-10-16T01:32:15.764Z,7.83
2016-10-16T01:32:56.299Z,7.85
2016-10-16T01:33:36.829Z,7.89
2016-10-16T01:34:17.362Z,7.9
2016-10-16T01:34:57.899Z,7.9
2016-10-16T01:35:38.438Z,7.85
2016-10-16T01:36:18.984Z,7.93
2016-10-16T01:36:59.517Z,7.9
2016-10-16T01:37:40.053Z,7.92
2016-10-16T01:38:20.594Z,7.92
2016-10-16T01:39:01.133Z,7.95
2016-10-16T01:39:41.664Z,7.9
2016-10-16T01:40:22.203Z,7.95
2016-10-16T01:41:02.740Z,7.92
2016-10-16T01:41:43.280Z,7.98
2016-10-16T01:42:23.820Z,7.93
2016-10-16T01:43:04.357Z,7.93
2016-10-16T01:43:44.891Z,7.92
2016-10-16T01:44:25.429Z,7.93
2016-10-16T01:45:05.974Z,7.97
2016-10-16T01:45:46.508Z,7.95
2016-10-16T01:46:27.040Z,7.92
2016-10-16T01:47:07.580Z,7.93
2016-10-16T01:47:48.113Z,7.93
2016-10-16T01:48:28.646Z,7.97
2016-10-16T01:49:09.179Z,7.93
2016-10-16T01:49:49.719Z,7.93
2016-10-16T01:50:30.260Z,8.05
2016-10-16T01:51:10.792Z,7.97
2016-10-16T01:51:51.334Z,7.98
2016-10-16T01:52:31.862Z,7.97
2016-10-16T01:53:12.402Z,7.95
2016-10-16T01:53:52.935Z,7.95
2016-10-16T01:54:33.474Z,8.01
2016-10-16T01:55:14.010Z,7.97
2016-10-16T01:55:54.554Z,7.95
2016-10-16T01:56:35.088Z,7.93
2016-10-16T01:57:15.621Z,7.95
2016-10-16T01:57:56.153Z,7.93
2016-10-16T01:58:36.690Z,8.11
2016-10-16T01:59:17.223Z,7.92
2016-10-16T01:59:57.767Z,7.92
2016-10-16T02:00:38.318Z,7.98
2016-10-16T02:01:18.857Z,7.98
2016-10-16T02:01:59.385Z,7.97
2016-10-16T02:02:39.925Z,7.97
2016-10-16T02:03:20.466Z,7.95
2016-10-16T02:04:01.008Z,8.07
2016-10-16T02:04:41.552Z,7.92
2016-10-16T02:05:22.088Z,8.02
2016-10-16T02:06:02.621Z,8
2016-10-16T02:06:43.158Z,7.97
2016-10-16T02:07:23.699Z,7.98
2016-10-16T02:08:04.239Z,7.97
2016-10-16T02:08:44.774Z,7.97
2016-10-16T02:09:25.308Z,7.93
2016-10-16T02:10:05.843Z,7.89
2016-10-16T02:10:46.393Z,8.05
2016-10-16T02:11:26.937Z,8.05
2016-10-16T02:12:07.475Z,7.89
2016-10-16T02:12:48.016Z,7.95
2016-10-16T02:13:28.553Z,7.95
2016-10-16T02:14:09.108Z,8.05
2016-10-16T02:14:49.627Z,7.95
2016-10-16T02:15:30.161Z,7.89
2016-10-16T02:16:10.698Z,8.04
2016-10-16T02:16:51.252Z,8.08
2016-10-16T02:17:31.792Z,7.92
2016-10-16T02:18:12.329Z,7.93
2016-10-16T02:18:52.873Z,8.01
2016-10-16T02:19:33.410Z,7.92
2016-10-16T02:20:13.940Z,7.93
2016-10-16T02:20:54.472Z,7.98
2016-10-16T02:21:35.016Z,7.93
2016-10-16T02:22:15.554Z,7.97
2016-10-16T02:22:56.098Z,7.97
2016-10-16T02:23:36.635Z,8
2016-10-16T02:24:17.176Z,7.97
2016-10-16T02:24:57.725Z,7.97
2016-10-16T02:25:38.262Z,7.97
2016-10-16T02:26:18.793Z,7.97
2016-10-16T02:26:59.333Z,7.97
2016-10-16T02:27:39.878Z,7.97
2016-10-16T02:28:20.416Z,7.98
2016-10-16T02:29:00.955Z,7.97
2016-10-16T02:29:41.493Z,7.95
2016-10-16T02:30:22.019Z,7.98
2016-10-16T02:31:02.557Z,7.93
2016-10-16T02:31:43.091Z,8.05
2016-10-16T02:32:23.619Z,7.93
2016-10-16T02:33:04.163Z,7.92
2016-10-16T02:33:44.708Z,7.9
2016-10-16T02:34:25.246Z,7.87
2016-10-16T02:35:05.794Z,7.97
2016-10-16T02:35:46.334Z,7.97
2016-10-16T02:36:26.875Z,8.01
2016-10-16T02:37:07.416Z,7.92
2016-10-16T02:37:47.953Z,7.89
2016-10-16T02:38:28.485Z,7.9
2016-10-16T02:39:09.022Z,7.92
2016-10-16T02:39:49.563Z,7.89
2016-10-16T02:40:30.096Z,7.98
2016-10-16T02:41:10.641Z,7.89
2016-10-16T02:41:51.176Z,7.86
2016-10-16T02:42:31.707Z,7.97
2016-10-16T02:43:12.245Z,7.98
2016-10-16T02:43:52.785Z,7.93
2016-10-16T02:44:33.320Z,7.98
2016-10-16T02:45:13.856Z,8
2016-10-16T02:45:54.398Z,7.93
2016-10-16T02:46:34.932Z,7.95
2016-10-16T02:47:15.463Z,7.97
2016-10-16T02:47:56.005Z,7.87
2016-10-16T02:48:36.543Z,7.89
2016-10-16T02:49:17.081Z,7.79
2016-10-16T02:49:57.624Z,7.85
2016-10-16T02:50:38.159Z,7.8
2016-10-16T02:51:18.702Z,7.83
2016-10-16T02:51:59.236Z,7.9
2016-10-16T02:52:39.768Z,7.86
2016-10-16T02:53:20.311Z,7.82
2016-10-16T02:54:00.846Z,7.75
2016-10-16T02:54:41.388Z,7.86
2016-10-16T02:55:21.930Z,7.87
2016-10-16T02:56:02.467Z,7.92
2016-10-16T02:56:43.004Z,7.83
2016-10-16T02:57:23.546Z,7.85
2016-10-16T02:58:04.072Z,7.75
2016-10-16T02:58:44.613Z,7.82
2016-10-16T02:59:25.151Z,7.75
2016-10-16T03:00:05.692Z,7.75
2016-10-16T03:00:46.237Z,7.85
2016-10-16T03:01:26.774Z,7.87
2016-10-16T03:02:07.312Z,7.86
2016-10-16T03:02:47.853Z,7.9
2016-10-16T03:03:28.392Z,7.87
2016-10-16T03:04:08.937Z,7.82
2016-10-16T03:04:49.448Z,7.87
2016-10-16T03:05:29.985Z,7.95
2016-10-16T03:06:10.527Z,7.85
2016-10-16T03:06:51.068Z,7.86
2016-10-16T03:07:31.615Z,7.9
2016-10-16T03:08:12.154Z,7.86
2016-10-16T03:08:52.666Z,7.85
2016-10-16T03:09:33.215Z,7.83
2016-10-16T03:10:13.757Z,7.85
2016-10-16T03:10:54.291Z,7.77
2016-10-16T03:11:34.832Z,7.77
2016-10-16T03:12:15.377Z,7.8
2016-10-16T03:12:55.921Z,7.77
2016-10-16T03:13:36.463Z,7.75
2016-10-16T03:14:16.987Z,7.67
2016-10-16T03:14:57.528Z,7.68
2016-10-16T03:15:38.064Z,7.74
2016-10-16T03:16:18.603Z,7.67
2016-10-16T03:16:59.145Z,7.69
2016-10-16T03:17:39.681Z,7.69
2016-10-16T03:18:20.214Z,7.67
2016-10-16T03:19:00.746Z,7.71
2016-10-16T03:19:41.285Z,7.72
2016-10-16T03:20:21.823Z,7.61
2016-10-16T03:21:02.357Z,7.6
2016-10-16T03:21:42.903Z,7.63
2016-10-16T03:22:23.438Z,7.61
2016-10-16T03:23:03.980Z,7.58
2016-10-16T03:23:44.516Z,7.58
2016-10-16T03:24:25.048Z,7.52
2016-10-16T03:25:05.576Z,7.53
2016-10-16T03:25:46.127Z,7.57
2016-10-16T03:26:26.659Z,7.53
2016-10-16T03:27:07.195Z,7.48
2016-10-16T03:27:47.736Z,7.5
2016-10-16T03:28:28.266Z,7.52
2016-10-16T03:29:08.801Z,7.52
2016-10-16T03:29:49.335Z,7.52
2016-10-16T03:30:29.863Z,7.53
2016-10-16T03:31:10.403Z,7.55
2016-10-16T03:31:50.946Z,7.53
2016-10-16T03:32:31.486Z,7.5
2016-10-16T03:33:12.025Z,7.5
2016-10-16T03:33:52.552Z,7.48
2016-10-16T03:34:33.094Z,7.53
2016-10-16T03:35:13.629Z,7.55
2016-10-16T03:35:54.174Z,7.55
2016-10-16T03:36:34.708Z,7.5
2016-10-16T03:37:15.257Z,7.48
2016-10-16T03:37:55.796Z,7.49
2016-10-16T03:38:36.344Z,7.46
2016-10-16T03:39:16.878Z,7.46
2016-10-16T03:39:57.407Z,7.45
2016-10-16T03:40:37.934Z,7.53
2016-10-16T03:41:18.472Z,7.53
2016-10-16T03:41:59.007Z,7.4
2016-10-16T03:42:39.546Z,7.5
2016-10-16T03:43:20.093Z,7.55
2016-10-16T03:44:00.620Z,7.5
2016-10-16T03:44:41.162Z,7.49
2016-10-16T03:45:21.704Z,7.48
2016-10-16T03:46:02.240Z,7.43
2016-10-16T03:46:42.789Z,7.46
2016-10-16T03:47:23.326Z,7.46
2016-10-16T03:48:03.871Z,7.35
2016-10-16T03:48:44.416Z,7.5
2016-10-16T03:49:24.952Z,7.35
2016-10-16T03:50:05.499Z,7.42
2016-10-16T03:50:46.038Z,7.48
2016-10-16T03:51:26.578Z,7.43
2016-10-16T03:52:07.117Z,7.4
2016-10-16T03:52:47.652Z,7.43
2016-10-16T03:53:28.191Z,7.34
2016-10-16T03:54:08.725Z,7.43
2016-10-16T03:54:49.266Z,7.42
2016-10-16T03:55:29.810Z,7.45
2016-10-16T03:56:10.345Z,7.34
2016-10-16T03:56:50.881Z,7.3
2016-10-16T03:57:31.417Z,7.45
2016-10-16T03:58:11.951Z,7.57
2016-10-16T03:58:52.495Z,7.55
2016-10-16T03:59:33.037Z,7.46
2016-10-16T04:00:13.583Z,7.53
2016-10-16T04:00:54.127Z,7.57
2016-10-16T04:01:34.670Z,7.52
2016-10-16T04:02:15.213Z,7.52
2016-10-16T04:02:55.762Z,7.57
2016-10-16T04:03:36.296Z,7.5
2016-10-16T04:04:16.832Z,7.42
2016-10-16T04:04:57.374Z,7.42
2016-10-16T04:05:37.907Z,7.4
2016-10-16T04:06:18.448Z,7.4
2016-10-16T04:06:58.991Z,7.37
2016-10-16T04:07:39.532Z,7.45
2016-10-16T04:08:20.067Z,7.31
2016-10-16T04:09:00.595Z,7.39
2016-10-16T04:09:41.139Z,7.31
2016-10-16T04:10:21.665Z,7.27
2016-10-16T04:11:02.213Z,7.32
2016-10-16T04:11:42.756Z,7.34
2016-10-16T04:12:23.299Z,7.31
2016-10-16T04:13:03.847Z,7.35
2016-10-16T04:13:44.384Z,7.34
2016-10-16T04:14:24.924Z,7.3
2016-10-16T04:15:05.465Z,7.2
2016-10-16T04:15:46.008Z,7.2
2016-10-16T04:16:26.547Z,7.31
2016-10-16T04:17:07.088Z,7.2
2016-10-16T04:17:47.623Z,7.28
2016-10-16T04:18:28.169Z,7.28
2016-10-16T04:19:08.709Z,7.21
2016-10-16T04:19:49.258Z,7.24
2016-10-16T04:20:29.796Z,7.23
2016-10-16T04:21:10.338Z,7.3
2016-10-16T04:21:50.878Z,7.3
2016-10-16T04:22:31.414Z,7.17
2016-10-16T04:23:11.946Z,7.24
2016-10-16T04:23:52.487Z,7.21
2016-10-16T04:24:33.026Z,7.3
2016-10-16T04:25:13.575Z,7.31
2016-10-16T04:25:54.112Z,7.27
2016-10-16T04:26:34.659Z,7.27
2016-10-16T04:27:15.195Z,7.31
2016-10-16T04:27:55.741Z,7.32
2016-10-16T04:28:36.274Z,7.34
2016-10-16T04:29:16.810Z,7.28
2016-10-16T04:29:57.348Z,7.34
2016-10-16T04:30:37.892Z,7.3
2016-10-16T04:31:18.431Z,7.27
2016-10-16T04:31:58.974Z,7.34
2016-10-16T04:32:39.516Z,7.3
2016-10-16T04:33:20.061Z,7.3
2016-10-16T04:34:00.602Z,7.42
2016-10-16T04:34:41.143Z,7.4
2016-10-16T04:35:21.681Z,7.34
2016-10-16T04:36:02.211Z,7.31
2016-10-16T04:36:42.753Z,7.25
2016-10-16T04:37:23.289Z,7.32
2016-10-16T04:38:03.822Z,7.3
2016-10-16T04:38:44.356Z,7.25
2016-10-16T04:39:24.896Z,7.3
2016-10-16T04:40:05.429Z,7.45
2016-10-16T04:40:45.954Z,7.34
2016-10-16T04:41:26.489Z,7.45
2016-10-16T04:42:07.029Z,7.46
2016-10-16T04:42:47.575Z,7.43
2016-10-16T04:43:28.126Z,7.55
2016-10-16T04:44:08.680Z,7.5
2016-10-16T04:44:49.212Z,7.43
2016-10-16T04:45:29.758Z,7.46
2016-10-16T04:46:10.290Z,7.46
2016-10-16T04:46:50.817Z,7.46
2016-10-16T04:47:31.357Z,7.32
2016-10-16T04:48:11.895Z,7.45
2016-10-16T04:48:52.418Z,7.4
2016-10-16T04:49:32.960Z,7.52
2016-10-16T04:50:13.504Z,7.48
2016-10-16T04:50:54.052Z,7.52
2016-10-16T04:51:34.592Z,7.46
2016-10-16T04:52:15.122Z,7.49
2016-10-16T04:52:55.662Z,7.57
2016-10-16T04:53:36.199Z,7.55
2016-10-16T04:54:16.741Z,7.49
2016-10-16T04:54:57.281Z,7.58
2016-10-16T04:55:37.819Z,7.5
2016-10-16T04:56:18.363Z,7.52
2016-10-16T04:56:58.908Z,7.49
2016-10-16T04:57:39.450Z,7.46
2016-10-16T04:58:19.989Z,7.58
2016-10-16T04:59:00.511Z,7.55
2016-10-16T04:59:41.055Z,7.5
2016-10-16T05:00:21.592Z,7.58
2016-10-16T05:01:02.137Z,7.55
2016-10-16T05:01:42.671Z,7.5
2016-10-16T05:02:23.211Z,7.52
2016-10-16T05:03:03.750Z,7.49
2016-10-16T05:03:44.278Z,7.5
2016-10-16T05:04:24.807Z,7.49
2016-10-16T05:05:05.346Z,7.53
2016-10-16T05:05:45.886Z,7.53
2016-10-16T05:06:26.426Z,7.53
2016-10-16T05:07:06.968Z,7.49
2016-10-16T05:07:47.511Z,7.52
2016-10-16T05:08:28.050Z,7.52
2016-10-16T05:09:08.581Z,7.53
2016-10-16T05:09:49.117Z,7.49
2016-10-16T05:10:29.651Z,7.49
2016-10-16T05:11:10.195Z,7.53
2016-10-16T05:11:50.739Z,7.52
2016-10-16T05:12:31.261Z,7.49
2016-10-16T05:13:11.788Z,7.52
2016-10-16T05:13:52.329Z,7.45
2016-10-16T05:14:32.888Z,7.46
2016-10-16T05:15:13.418Z,7.35
2016-10-16T05:15:53.961Z,7.4
2016-10-16T05:16:34.484Z,7.45
2016-10-16T05:17:15.015Z,7.45
2016-10-16T05:17:55.556Z,7.49
2016-10-16T05:18:36.092Z,7.4
2016-10-16T05:19:16.630Z,7.52
2016-10-16T05:19:57.170Z,7.34
2016-10-16T05:20:37.722Z,7.34
2016-10-16T05:21:18.243Z,7.45
2016-10-16T05:21:58.784Z,7.4
2016-10-16T05:22:39.318Z,7.3
2016-10-16T05:23:19.860Z,7.39
2016-10-16T05:24:00.398Z,7.37
2016-10-16T05:24:40.939Z,7.3
2016-10-16T05:25:21.475Z,7.31
2016-10-16T05:26:02.026Z,7.35
2016-10-16T05:26:42.567Z,7.28
2016-10-16T05:27:23.110Z,7.35
2016-10-16T05:28:03.657Z,7.3
2016-10-16T05:28:44.201Z,7.46
2016-10-16T05:29:24.741Z,7.31
2016-10-16T05:30:05.277Z,7.45
2016-10-16T05:30:45.807Z,7.3
2016-10-16T05:31:26.345Z,7.35
2016-10-16T05:32:06.880Z,7.32
2016-10-16T05:32:47.417Z,7.31
2016-10-16T05:33:27.964Z,7.31
2016-10-16T05:34:08.506Z,7.31
2016-10-16T05:34:49.046Z,7.28
2016-10-16T05:35:29.583Z,7.34
2016-10-16T05:36:10.126Z,7.34
2016-10-16T05:36:50.663Z,7.31
2016-10-16T05:37:31.201Z,7.31
2016-10-16T05:38:11.728Z,7.23
2016-10-16T05:38:52.269Z,7.2
2016-10-16T05:39:32.809Z,7.32
2016-10-16T05:40:13.347Z,7.21
2016-10-16T05:40:53.874Z,7.24
2016-10-16T05:41:34.420Z,7.31
2016-10-16T05:42:14.956Z,7.31
2016-10-16T05:42:55.487Z,7.31
2016-10-16T05:43:36.024Z,7.28
2016-10-16T05:44:16.570Z,7.25
2016-10-16T05:44:57.114Z,7.17
2016-10-16T05:45:37.661Z,7.28
2016-10-16T05:46:18.199Z,7.31
2016-10-16T05:46:58.720Z,7.3
2016-10-16T05:47:39.266Z,7.32
2016-10-16T05:48:19.797Z,7.31
2016-10-16T05:49:00.365Z,7.3
2016-10-16T05:49:40.877Z,7.28
2016-10-16T05:50:21.417Z,7.31
2016-10-16T05:51:01.959Z,7.3
2016-10-16T05:51:42.494Z,7.35
2016-10-16T05:52:23.031Z,7.35
2016-10-16T05:53:03.566Z,7.32
2016-10-16T05:53:44.097Z,7.42
2016-10-16T05:54:24.640Z,7.37
2016-10-16T05:55:05.174Z,7.37
2016-10-16T05:55:45.718Z,7.3
2016-10-16T05:56:26.246Z,7.32
2016-10-16T05:57:06.778Z,7.37
2016-10-16T05:57:47.317Z,7.27
2016-10-16T05:58:27.860Z,7.34
2016-10-16T05:59:08.382Z,7.27
2016-10-16T05:59:48.930Z,7.31
2016-10-16T06:00:29.469Z,7.31
2016-10-16T06:01:10.010Z,7.25
2016-10-16T06:01:50.552Z,7.27
2016-10-16T06:02:31.094Z,7.3
2016-10-16T06:03:11.621Z,7.31
2016-10-16T06:03:52.158Z,7.32
2016-10-16T06:04:32.698Z,7.28
2016-10-16T06:05:13.236Z,7.32
2016-10-16T06:05:53.784Z,7.31
2016-10-16T06:06:34.325Z,7.23
2016-10-16T06:07:14.864Z,7.31
2016-10-16T06:07:55.414Z,7.37
2016-10-16T06:08:35.952Z,7.2
2016-10-16T06:09:16.482Z,7.3
2016-10-16T06:09:57.014Z,7.3
2016-10-16T06:10:37.552Z,7.28
2016-10-16T06:11:18.092Z,7.17
2016-10-16T06:11:58.631Z,7.24
2016-10-16T06:12:39.160Z,7.24
2016-10-16T06:13:19.702Z,7.23
2016-10-16T06:14:00.230Z,7.28
2016-10-16T06:14:40.766Z,7.28
2016-10-16T06:15:21.305Z,7.17
2016-10-16T06:16:01.846Z,7.15
2016-10-16T06:16:42.384Z,7.2
2016-10-16T06:17:22.925Z,7.31
2016-10-16T06:18:03.460Z,7.32
2016-10-16T06:18:43.991Z,7.2
2016-10-16T06:19:24.536Z,7.2
2016-10-16T06:20:05.106Z,7.2
2016-10-16T06:20:45.713Z,7.2
2016-10-16T06:21:26.251Z,7.28
2016-10-16T06:22:06.790Z,7.23
2016-10-16T06:22:47.327Z,7.25
2016-10-16T06:23:27.868Z,7.3
2016-10-16T06:24:08.400Z,7.32
2016-10-16T06:24:48.943Z,7.28
2016-10-16T06:25:29.472Z,7.32
2016-10-16T06:26:10.071Z,7.25
2016-10-16T06:26:50.610Z,7.32
2016-10-16T06:27:31.140Z,7.3
2016-10-16T06:28:11.679Z,7.31
2016-10-16T06:28:52.218Z,7.45
2016-10-16T06:29:32.760Z,7.45
2016-10-16T06:30:13.307Z,7.46
2016-10-16T06:30:53.845Z,7.46
2016-10-16T06:31:34.390Z,7.46
2016-10-16T06:32:14.936Z,7.48
2016-10-16T06:32:55.476Z,7.42
2016-10-16T06:33:36.007Z,7.46
2016-10-16T06:34:16.541Z,7.42
2016-10-16T06:34:57.077Z,7.53
2016-10-16T06:35:37.616Z,7.5
2016-10-16T06:36:18.171Z,7.52
2016-10-16T06:36:58.716Z,7.53
2016-10-16T06:37:39.252Z,7.5
2016-10-16T06:38:19.797Z,7.52
2016-10-16T06:39:00.334Z,7.58
2016-10-16T06:39:40.868Z,7.57
2016-10-16T06:40:21.397Z,7.57
2016-10-16T06:41:01.964Z,7.57
2016-10-16T06:41:42.474Z,7.58
2016-10-16T06:42:23.002Z,7.74
2016-10-16T06:43:03.549Z,7.74
2016-10-16T06:43:44.068Z,7.63
2016-10-16T06:44:24.591Z,7.69
2016-10-16T06:45:05.116Z,7.71
2016-10-16T06:45:45.661Z,7.71
2016-10-16T06:46:26.206Z,7.75
2016-10-16T06:47:06.753Z,7.77
2016-10-16T06:47:47.288Z,7.67
2016-10-16T06:48:27.795Z,7.77
2016-10-16T06:49:08.332Z,7.77
2016-10-16T06:49:48.880Z,7.77
2016-10-16T06:50:29.416Z,7.77
2016-10-16T06:51:09.955Z,7.79
2016-10-16T06:51:50.491Z,7.8
2016-10-16T06:52:31.021Z,7.83
2016-10-16T06:53:11.563Z,7.9
2016-10-16T06:53:52.103Z,7.83
2016-10-16T06:54:32.641Z,7.89
2016-10-16T06:55:13.181Z,7.82
2016-10-16T06:55:53.722Z,7.86
2016-10-16T06:56:34.267Z,7.75
2016-10-16T06:57:14.811Z,7.79
2016-10-16T06:57:55.345Z,7.87
2016-10-16T06:58:35.889Z,7.75
2016-10-16T06:59:16.422Z,7.82
2016-10-16T06:59:56.956Z,7.92
2016-10-16T07:00:37.493Z,7.83
2016-10-16T07:01:18.025Z,7.85
2016-10-16T07:01:58.569Z,7.9
2016-10-16T07:02:39.106Z,7.9
2016-10-16T07:03:19.651Z,7.89
2016-10-16T07:04:00.193Z,7.87
2016-10-16T07:04:40.727Z,7.9
2016-10-16T07:05:21.258Z,7.95
2016-10-16T07:06:01.801Z,7.95
2016-10-16T07:06:42.330Z,7.89
2016-10-16T07:07:22.871Z,7.95
2016-10-16T07:08:03.415Z,7.9
2016-10-16T07:08:43.953Z,7.9
2016-10-16T07:09:24.490Z,7.95
2016-10-16T07:10:05.015Z,7.89
2016-10-16T07:10:45.556Z,7.95
2016-10-16T07:11:26.093Z,8.04
2016-10-16T07:12:06.634Z,7.95
2016-10-16T07:12:47.172Z,7.97
2016-10-16T07:13:27.703Z,7.97
2016-10-16T07:14:08.256Z,8
2016-10-16T07:14:48.792Z,7.95
2016-10-16T07:15:29.317Z,7.93
2016-10-16T07:16:09.866Z,7.97
2016-10-16T07:16:50.398Z,8.04
2016-10-16T07:17:30.934Z,8
2016-10-16T07:18:11.480Z,7.98
2016-10-16T07:18:52.027Z,8.04
2016-10-16T07:19:32.576Z,8.15
2016-10-16T07:20:13.129Z,8.05
2016-10-16T07:20:53.666Z,8.1
2016-10-16T07:21:34.209Z,8.15
2016-10-16T07:22:14.741Z,8.12
2016-10-16T07:22:55.273Z,8.08
2016-10-16T07:23:35.813Z,8.16
2016-10-16T07:24:16.354Z,8.25
2016-10-16T07:24:56.886Z,8.12
2016-10-16T07:25:37.435Z,8.07
2016-10-16T07:26:17.981Z,8.12
2016-10-16T07:26:58.518Z,8.11
2016-10-16T07:27:39.049Z,8.15
2016-10-16T07:28:19.588Z,8.23
2016-10-16T07:29:00.117Z,8.2
2016-10-16T07:29:40.662Z,8.19
2016-10-16T07:30:21.198Z,8.19
2016-10-16T07:31:01.735Z,8.23
2016-10-16T07:31:42.270Z,8.23
2016-10-16T07:32:22.800Z,8.33
2016-10-16T07:33:03.331Z,8.34
2016-10-16T07:33:43.869Z,8.26
2016-10-16T07:34:24.416Z,8.37
2016-10-16T07:35:04.956Z,8.34
2016-10-16T07:35:45.496Z,8.29
2016-10-16T07:36:26.043Z,8.41
2016-10-16T07:37:06.577Z,8.48
2016-10-16T07:37:47.107Z,8.43
2016-10-16T07:38:27.634Z,8.5
2016-10-16T07:39:08.175Z,8.5
2016-10-16T07:39:48.722Z,8.55
2016-10-16T07:40:29.263Z,8.52
2016-10-16T07:41:09.804Z,8.56
2016-10-16T07:41:50.342Z,8.66
2016-10-16T07:42:30.877Z,8.62
2016-10-16T07:43:11.412Z,8.62
2016-10-16T07:43:51.931Z,8.59
2016-10-16T07:44:32.475Z,8.68
2016-10-16T07:45:13.018Z,8.7
2016-10-16T07:45:53.558Z,8.68
2016-10-16T07:46:34.101Z,8.71
2016-10-16T07:47:14.655Z,8.7
2016-10-16T07:47:55.205Z,8.66
2016-10-16T07:48:35.743Z,8.73
2016-10-16T07:49:16.275Z,8.71
2016-10-16T07:49:56.830Z,8.71
2016-10-16T07:50:37.349Z,8.73
2016-10-16T07:51:17.897Z,8.68
2016-10-16T07:51:58.432Z,8.7
2016-10-16T07:52:39.014Z,8.71
2016-10-16T07:53:19.550Z,8.73
2016-10-16T07:54:00.092Z,8.76
2016-10-16T07:54:40.639Z,8.84
2016-10-16T07:55:21.191Z,8.84
2016-10-16T07:56:01.724Z,8.87
2016-10-16T07:56:42.270Z,8.89
2016-10-16T07:57:22.809Z,8.87
2016-10-16T07:58:03.347Z,8.95
2016-10-16T07:58:43.878Z,8.99
2016-10-16T07:59:24.411Z,8.92
2016-10-16T08:00:04.959Z,8.91
2016-10-16T08:00:45.505Z,8.99
2016-10-16T08:01:26.044Z,9.04
2016-10-16T08:02:06.592Z,9.01
2016-10-16T08:02:47.129Z,9.15
2016-10-16T08:03:27.663Z,9.14
2016-10-16T08:04:08.222Z,9.18
2016-10-16T08:04:48.767Z,9.23
2016-10-16T08:05:29.288Z,9.23
2016-10-16T08:06:09.832Z,9.26
2016-10-16T08:06:50.364Z,9.33
2016-10-16T08:07:30.908Z,9.39
2016-10-16T08:08:11.486Z,9.32
2016-10-16T08:08:52.005Z,9.4
2016-10-16T08:09:32.551Z,9.38
2016-10-16T08:10:13.061Z,9.35
2016-10-16T08:10:53.578Z,9.47
2016-10-16T08:11:34.105Z,9.51
2016-10-16T08:12:14.639Z,9.54
2016-10-16T08:12:55.156Z,9.57
2016-10-16T08:13:35.680Z,9.6
2016-10-16T08:14:16.205Z,9.72
2016-10-16T08:14:56.749Z,9.68
2016-10-16T08:15:37.306Z,9.75
2016-10-16T08:16:17.826Z,9.74
2016-10-16T08:16:58.349Z,9.74
2016-10-16T08:17:38.878Z,9.75
2016-10-16T08:18:19.421Z,9.81
2016-10-16T08:18:59.972Z,9.81
2016-10-16T08:19:40.505Z,9.87
2016-10-16T08:20:21.049Z,9.94
2016-10-16T08:21:01.588Z,9.89
2016-10-16T08:21:42.116Z,10.02
2016-10-16T08:22:22.651Z,10.05
2016-10-16T08:23:03.199Z,10.07
2016-10-16T08:23:43.734Z,10.17
2016-10-16T08:24:24.278Z,10.26
2016-10-16T08:25:04.811Z,10.29
2016-10-16T08:25:45.345Z,10.36
2016-10-16T08:26:25.904Z,10.34
2016-10-16T08:27:06.443Z,10.38
2016-10-16T08:27:46.977Z,10.51
2016-10-16T08:28:27.523Z,10.55
2016-10-16T08:29:08.054Z,10.61
2016-10-16T08:29:48.595Z,10.71
2016-10-16T08:30:29.105Z,10.78
2016-10-16T08:31:09.642Z,10.78
2016-10-16T08:31:50.179Z,10.85
2016-10-16T08:32:30.757Z,10.86
2016-10-16T08:33:11.297Z,10.94
2016-10-16T08:33:51.842Z,11
2016-10-16T08:34:32.385Z,11
2016-10-16T08:35:12.922Z,11.1
2016-10-16T08:35:53.467Z,11.19
2016-10-16T08:36:34.007Z,11.14
2016-10-16T08:37:14.544Z,11.28
2016-10-16T08:37:55.097Z,11.32
2016-10-16T08:38:35.654Z,11.4
2016-10-16T08:39:16.173Z,11.54
2016-10-16T08:39:56.719Z,11.57
2016-10-16T08:40:37.254Z,11.73
2016-10-16T08:41:17.812Z,11.78
2016-10-16T08:41:58.351Z,11.86
2016-10-16T08:42:38.874Z,12.04
2016-10-16T08:43:19.425Z,12.21
2016-10-16T08:43:59.965Z,12.21
2016-10-16T08:44:40.496Z,12.39
2016-10-16T08:45:21.044Z,12.57
2016-10-16T08:46:01.570Z,12.68
2016-10-16T08:46:42.116Z,12.77
2016-10-16T08:47:22.654Z,12.86
2016-10-16T08:48:03.197Z,12.96
2016-10-16T08:48:43.719Z,13.12
2016-10-16T08:49:24.264Z,13.11
2016-10-16T08:50:04.799Z,13.25
2016-10-16T08:50:45.339Z,13.22
2016-10-16T08:51:25.873Z,13.41
2016-10-16T08:52:06.419Z,13.44
2016-10-16T08:52:46.962Z,13.51
2016-10-16T08:53:27.512Z,13.59
2016-10-16T08:54:08.044Z,13.7
2016-10-16T08:54:48.582Z,13.79
2016-10-16T08:55:29.105Z,13.84
2016-10-16T08:56:09.658Z,13.96
2016-10-16T08:56:50.208Z,14
2016-10-16T08:57:30.734Z,14.09
2016-10-16T08:58:11.273Z,14.06
2016-10-16T08:58:51.796Z,14.21
2016-10-16T08:59:32.328Z,14.24
2016-10-16T09:00:12.867Z,14.4
2016-10-16T09:00:53.409Z,14.45
2016-10-16T09:01:33.950Z,14.65
2016-10-16T09:02:14.503Z,14.83
2016-10-16T09:02:55.052Z,14.86
2016-10-16T09:03:35.600Z,15.03
2016-10-16T09:04:16.155Z,15.14
2016-10-16T09:04:56.683Z,15.34
2016-10-16T09:05:37.220Z,15.46
2016-10-16T09:06:17.770Z,15.67
2016-10-16T09:06:58.326Z,15.84
2016-10-16T09:07:38.871Z,15.9
2016-10-16T09:08:19.396Z,15.97
2016-10-16T09:08:59.945Z,16.07
2016-10-16T09:09:40.494Z,16.07
2016-10-16T09:10:21.042Z,16.14
2016-10-16T09:11:01.590Z,16.27
2016-10-16T09:11:42.141Z,16.33
2016-10-16T09:12:22.690Z,16.43
2016-10-16T09:13:03.242Z,16.5